createdAt,value
2023-04-18T00:00:29.166Z,1.00
2023-04-18T00:05:33.824Z,99.90
2023-04-18T00:10:37.146Z,1.00
2023-04-18T00:15:43.003Z,99.90
2023-04-18T00:20:47.743Z,1.00
2023-04-18T00:25:50.993Z,1.00
2023-04-18T00:30:54.418Z,1.00
2023-04-18T00:35:59.091Z,1.00
2023-04-18T00:41:02.419Z,1.00
2023-04-18T00:46:06.345Z,99.90
2023-04-18T00:51:13.237Z,99.90
2023-04-18T00:56:17.789Z,99.90
2023-04-18T01:01:21.661Z,1.00
2023-04-18T01:06:27.713Z,99.90
2023-04-18T01:11:31.558Z,1.00
2023-04-18T01:16:35.109Z,1.00
2023-04-18T01:21:43.832Z,99.90
2023-04-18T01:26:51.148Z,99.90
2023-04-18T01:31:54.651Z,1.00
2023-04-18T01:36:57.990Z,99.90
2023-04-18T01:42:02.913Z,99.90
2023-04-18T01:47:06.246Z,35.20
2023-04-18T01:52:09.594Z,99.90
2023-04-18T01:57:14.278Z,99.90
2023-04-18T02:02:17.736Z,99.90
2023-04-18T02:07:21.091Z,1.00
2023-04-18T02:12:25.923Z,7.70
2023-04-18T02:17:30.543Z,99.90
2023-04-18T02:22:33.846Z,99.90
2023-04-18T02:27:38.527Z,19.20
2023-04-18T02:32:41.900Z,1.00
2023-04-18T02:37:45.689Z,1.00
2023-04-18T02:42:50.494Z,1.00
2023-04-18T02:47:55.975Z,1.00
2023-04-18T02:53:00.177Z,99.90
2023-04-18T02:58:15.212Z,1.00
2023-04-18T03:03:37.244Z,1.00
2023-04-18T03:08:55.335Z,1.00
2023-04-18T03:14:01.839Z,1.00
2023-04-18T03:19:12.955Z,99.90
2023-04-18T03:24:16.705Z,99.90
2023-04-18T03:29:26.120Z,1.00
2023-04-18T03:34:29.728Z,99.90
2023-04-18T03:39:33.495Z,99.90
2023-04-18T03:44:38.881Z,50.30
2023-04-18T03:49:43.363Z,1.00
2023-04-18T03:54:46.754Z,99.90
2023-04-18T03:59:53.496Z,1.00
2023-04-18T04:04:57.939Z,99.90
2023-04-18T04:10:01.494Z,1.00
2023-04-18T04:15:07.477Z,1.00
2023-04-18T04:20:14.368Z,1.00
2023-04-18T04:25:19.446Z,99.90
2023-04-18T04:30:24.479Z,29.70
2023-04-18T04:35:28.463Z,1.00
2023-04-18T04:40:32.150Z,17.80
2023-04-18T04:45:45.601Z,99.90
2023-04-18T04:50:53.958Z,1.00
2023-04-18T04:55:57.760Z,1.00
2023-04-18T05:01:02.612Z,1.00
2023-04-18T05:06:08.232Z,49.60
2023-04-18T05:11:12.292Z,99.90
2023-04-18T05:16:17.115Z,99.90
2023-04-18T05:21:20.429Z,99.90
2023-04-18T05:26:24.404Z,99.90
2023-04-18T05:31:29.143Z,84.30
2023-04-18T05:36:32.938Z,99.90
2023-04-18T05:41:36.241Z,99.90
2023-04-18T05:46:41.000Z,99.90
2023-04-18T05:51:44.252Z,99.90
2023-04-18T05:56:47.527Z,99.90
2023-04-18T06:01:52.171Z,99.90
2023-04-18T06:06:55.482Z,57.50
2023-04-18T06:11:58.957Z,3.60
2023-04-18T06:17:03.638Z,1.00
2023-04-18T06:22:07.031Z,1.00
2023-04-18T06:27:17.695Z,1.00
2023-04-18T06:32:32.865Z,99.90
2023-04-18T06:37:36.196Z,99.90
2023-04-18T06:42:39.527Z,1.00
2023-04-18T06:47:44.257Z,99.90
2023-04-18T06:52:47.510Z,1.00
2023-04-18T06:57:50.835Z,1.00
2023-04-18T07:02:55.539Z,99.90
2023-04-18T07:07:59.138Z,1.00
2023-04-18T07:13:02.388Z,1.00
2023-04-18T07:18:07.200Z,99.90
2023-04-18T07:23:11.141Z,1.00
2023-04-18T07:28:14.440Z,99.90
2023-04-18T07:33:19.025Z,1.00
2023-04-18T07:38:22.298Z,1.00
2023-04-18T07:43:25.598Z,1.00
2023-04-18T07:48:30.154Z,1.00
2023-04-18T07:53:33.395Z,99.90
2023-04-18T07:58:36.820Z,99.90
2023-04-18T08:03:41.904Z,99.90
2023-04-18T08:08:45.371Z,99.90
2023-04-18T08:13:48.767Z,99.90
2023-04-18T08:18:53.480Z,44.50
2023-04-18T08:23:57.166Z,84.20
2023-04-18T08:29:00.377Z,1.00
2023-04-18T08:34:05.294Z,1.00
2023-04-18T08:39:08.703Z,1.00
2023-04-18T08:44:13.043Z,1.00
2023-04-18T08:49:18.011Z,1.00
2023-04-18T08:54:22.592Z,1.00
2023-04-18T08:59:26.530Z,1.00
2023-04-18T09:04:39.735Z,1.00
2023-04-18T09:09:44.529Z,1.00
2023-04-18T09:14:48.628Z,1.00
2023-04-18T09:19:54.621Z,1.00
2023-04-18T09:24:58.341Z,1.00
2023-04-18T09:30:01.582Z,1.00
2023-04-18T09:35:06.869Z,1.00
2023-04-18T09:40:19.173Z,1.00
2023-04-18T09:45:23.677Z,1.00
2023-04-18T09:50:28.509Z,1.00
2023-04-18T09:55:33.471Z,1.00
2023-04-18T10:00:38.766Z,1.00
2023-04-18T10:05:43.820Z,1.00
2023-04-18T10:10:47.620Z,1.00
2023-04-18T10:15:52.517Z,1.00
2023-04-18T10:21:04.469Z,1.00
2023-04-18T10:26:08.896Z,1.00
2023-04-18T10:31:12.257Z,1.00
2023-04-18T10:36:20.154Z,1.00
2023-04-18T10:41:25.555Z,1.00
2023-04-18T10:46:32.436Z,99.90
2023-04-18T10:51:37.868Z,99.90
2023-04-18T10:56:41.353Z,99.90
2023-04-18T11:01:50.281Z,99.90
2023-04-18T11:06:57.336Z,99.90
2023-04-18T11:12:08.237Z,99.90
2023-04-18T11:17:22.070Z,99.90
2023-04-18T11:22:26.969Z,1.00
2023-04-18T11:27:31.148Z,1.00
2023-04-18T11:32:36.367Z,99.90
2023-04-18T11:37:42.026Z,1.00
2023-04-18T11:42:45.375Z,99.90
2023-04-18T11:47:48.848Z,99.90
2023-04-18T11:52:55.028Z,99.90
2023-04-18T11:57:59.588Z,99.90
2023-04-18T12:03:04.599Z,99.90
2023-04-18T12:08:11.572Z,99.90
2023-04-18T12:13:15.245Z,99.90
2023-04-18T12:18:19.970Z,99.90
2023-04-18T12:23:38.996Z,99.90
2023-04-18T12:28:46.539Z,99.90
2023-04-18T12:33:50.636Z,99.90
2023-04-18T12:38:55.290Z,99.90
2023-04-18T12:43:58.523Z,99.90
2023-04-18T12:49:01.905Z,99.90
2023-04-18T12:54:06.767Z,99.90
2023-04-18T12:59:10.012Z,99.90
2023-04-18T13:04:13.572Z,99.90
2023-04-18T13:09:18.620Z,99.90
2023-04-18T13:14:22.076Z,99.90
2023-04-18T13:19:25.513Z,99.90
2023-04-18T13:24:30.212Z,99.90
2023-04-18T13:29:33.451Z,99.90
2023-04-18T13:34:39.001Z,99.90
2023-04-18T13:39:44.037Z,99.90
2023-04-18T13:44:48.185Z,99.90
2023-04-18T13:49:51.657Z,99.90
2023-04-18T13:54:56.555Z,99.90
2023-04-18T13:59:59.800Z,99.90
2023-04-18T14:05:03.239Z,99.90
2023-04-18T14:10:09.633Z,99.90
2023-04-18T14:15:13.253Z,99.90
2023-04-18T14:20:19.277Z,99.90
2023-04-18T14:25:23.985Z,99.90
2023-04-18T14:30:27.373Z,99.90
2023-04-18T14:35:30.747Z,99.90
2023-04-18T14:40:36.020Z,99.90
2023-04-18T14:45:39.428Z,99.90
2023-04-18T14:50:43.806Z,99.90
2023-04-18T14:55:48.483Z,99.90
2023-04-18T15:00:52.340Z,99.90
2023-04-18T15:05:55.603Z,99.90
2023-04-18T15:11:01.168Z,99.90
2023-04-18T15:16:04.670Z,99.90
2023-04-18T15:21:07.963Z,99.90
2023-04-18T15:26:12.640Z,99.90
2023-04-18T15:31:16.558Z,99.90
2023-04-18T15:36:19.961Z,99.90
2023-04-18T15:41:24.704Z,99.90
2023-04-18T15:46:28.070Z,99.90
2023-04-18T15:51:31.476Z,99.90
2023-04-18T15:56:36.955Z,99.90
2023-04-18T16:01:40.719Z,99.90
2023-04-18T16:06:44.029Z,99.90
2023-04-18T16:11:48.656Z,99.90
2023-04-18T16:16:53.765Z,99.90
2023-04-18T16:21:57.158Z,1.00
2023-04-18T16:27:02.847Z,99.90
2023-04-18T16:32:08.150Z,99.90
2023-04-18T16:37:11.457Z,1.00
2023-04-18T16:42:16.218Z,1.00
2023-04-18T16:47:20.385Z,1.00
2023-04-18T16:52:24.093Z,1.00
2023-04-18T16:57:28.818Z,1.00
2023-04-18T17:02:34.048Z,1.00
2023-04-18T17:07:37.724Z,1.00
2023-04-18T17:12:42.684Z,1.00
2023-04-18T17:17:46.146Z,1.00
2023-04-18T17:22:49.611Z,1.00
2023-04-18T17:27:54.431Z,1.00
2023-04-18T17:32:57.711Z,1.00
2023-04-18T17:38:01.114Z,1.00
2023-04-18T17:43:06.056Z,1.00
2023-04-18T17:48:09.333Z,1.00
2023-04-18T17:53:12.938Z,1.00
2023-04-18T17:58:17.612Z,1.00
2023-04-18T18:03:21.454Z,1.00
2023-04-18T18:08:25.743Z,1.00
2023-04-18T18:13:30.439Z,1.00
2023-04-18T18:18:33.708Z,1.00
2023-04-18T18:23:37.058Z,1.00
2023-04-18T18:28:41.664Z,1.00
2023-04-18T18:33:44.898Z,1.00
2023-04-18T18:38:48.193Z,1.00
2023-04-18T18:43:53.457Z,1.00
2023-04-18T18:48:56.719Z,1.00
2023-04-18T18:54:00.641Z,1.00
2023-04-18T18:59:05.358Z,1.00
2023-04-18T19:04:08.856Z,1.00
2023-04-18T19:09:12.974Z,1.00
2023-04-18T19:14:17.899Z,1.00
2023-04-18T19:19:21.259Z,1.00
2023-04-18T19:24:24.529Z,1.00
2023-04-18T19:29:31.912Z,1.00
2023-04-18T19:34:35.980Z,1.00
2023-04-18T19:39:39.273Z,1.00
2023-04-18T19:44:44.342Z,10.50
2023-04-18T19:49:48.127Z,23.30
2023-04-18T19:54:52.909Z,1.00
2023-04-18T19:59:57.805Z,18.30
2023-04-18T20:05:01.464Z,23.10
2023-04-18T20:10:09.570Z,1.00
2023-04-18T20:15:14.673Z,10.40
2023-04-18T20:20:17.955Z,8.30
2023-04-18T20:25:21.535Z,21.60
2023-04-18T20:30:26.543Z,1.00
2023-04-18T20:35:29.824Z,1.00
2023-04-18T20:40:34.398Z,1.00
2023-04-18T20:45:43.022Z,1.00
2023-04-18T20:50:51.298Z,23.70
2023-04-18T20:55:55.317Z,8.00
2023-04-18T21:01:00.102Z,15.00
2023-04-18T21:06:03.533Z,1.00
2023-04-18T21:11:07.460Z,9.30
2023-04-18T21:16:12.183Z,99.90
2023-04-18T21:21:15.612Z,99.90
2023-04-18T21:26:19.148Z,99.90
2023-04-18T21:31:24.321Z,60.70
2023-04-18T21:36:29.557Z,64.20
2023-04-18T21:41:33.029Z,99.90
2023-04-18T21:46:37.940Z,99.90
2023-04-18T21:51:41.349Z,99.90
2023-04-18T21:56:44.754Z,99.90
2023-04-18T22:01:49.494Z,99.90
2023-04-18T22:06:54.244Z,99.90
2023-04-18T22:11:57.787Z,99.90
2023-04-18T22:17:03.251Z,99.90
2023-04-18T22:22:06.657Z,99.90
2023-04-18T22:27:10.169Z,99.90
2023-04-18T22:32:14.882Z,99.90
2023-04-18T22:37:18.429Z,99.90
2023-04-18T22:42:21.756Z,99.90
2023-04-18T22:47:26.921Z,80.10
2023-04-18T22:52:30.930Z,77.00
2023-04-18T22:57:34.436Z,99.90
2023-04-18T23:02:39.414Z,99.90
2023-04-18T23:07:42.875Z,99.90
2023-04-18T23:12:46.345Z,99.90
2023-04-18T23:17:53.041Z,99.90
2023-04-18T23:22:56.544Z,99.90
2023-04-18T23:27:59.911Z,99.90
2023-04-18T23:33:04.882Z,99.90
2023-04-18T23:38:08.271Z,99.90
2023-04-18T23:43:11.643Z,99.90
2023-04-18T23:48:16.464Z,15.20
2023-04-18T23:53:20.452Z,62.80
2023-04-18T23:58:23.923Z,48.70
